sensor_id;sensor_type;location;lat;lon;timestamp;temperature;humidity
22623;DHT22;11478;51.094;7.030;2024-02-23T00:02:10;6.30;99.90
22623;DHT22;11478;51.094;7.030;2024-02-23T00:04:36;6.30;99.90
22623;DHT22;11478;51.094;7.030;2024-02-23T00:07:02;6.30;99.90
22623;DHT22;11478;51.094;7.030;2024-02-23T00:09:29;6.30;99.90
22623;DHT22;11478;51.094;7.030;2024-02-23T00:11:54;6.30;99.90
22623;DHT22;11478;51.094;7.030;2024-02-23T00:14:23;6.30;99.90
22623;DHT22;11478;51.094;7.030;2024-02-23T00:16:51;6.30;99.90
22623;DHT22;11478;51.094;7.030;2024-02-23T00:19:19;6.20;99.90
22623;DHT22;11478;51.094;7.030;2024-02-23T00:21:46;6.20;99.90
22623;DHT22;11478;51.094;7.030;2024-02-23T00:24:17;6.20;99.90
22623;DHT22;11478;51.094;7.030;2024-02-23T00:26:43;6.30;99.90
22623;DHT22;11478;51.094;7.030;2024-02-23T00:29:10;6.20;99.90
22623;DHT22;11478;51.094;7.030;2024-02-23T00:31:41;6.20;99.90
22623;DHT22;11478;51.094;7.030;2024-02-23T00:34:07;6.20;99.90
22623;DHT22;11478;51.094;7.030;2024-02-23T00:36:40;6.10;99.90
22623;DHT22;11478;51.094;7.030;2024-02-23T00:39:07;6.00;99.90
22623;DHT22;11478;51.094;7.030;2024-02-23T00:41:33;6.00;99.90
22623;DHT22;11478;51.094;7.030;2024-02-23T00:43:59;6.00;99.90
22623;DHT22;11478;51.094;7.030;2024-02-23T00:46:25;5.90;99.90
22623;DHT22;11478;51.094;7.030;2024-02-23T00:48:51;5.80;99.90
22623;DHT22;11478;51.094;7.030;2024-02-23T00:51:17;5.80;99.90
22623;DHT22;11478;51.094;7.030;2024-02-23T00:53:43;5.80;99.90
22623;DHT22;11478;51.094;7.030;2024-02-23T00:56:09;5.70;99.90
22623;DHT22;11478;51.094;7.030;2024-02-23T00:58:35;5.60;99.90
22623;DHT22;11478;51.094;7.030;2024-02-23T01:01:01;5.60;99.90
22623;DHT22;11478;51.094;7.030;2024-02-23T01:03:27;5.50;99.90
22623;DHT22;11478;51.094;7.030;2024-02-23T01:05:52;5.50;99.90
22623;DHT22;11478;51.094;7.030;2024-02-23T01:08:19;5.50;99.90
22623;DHT22;11478;51.094;7.030;2024-02-23T01:10:45;5.40;99.90
22623;DHT22;11478;51.094;7.030;2024-02-23T01:13:11;5.40;99.90
22623;DHT22;11478;51.094;7.030;2024-02-23T01:15:37;5.40;99.90
22623;DHT22;11478;51.094;7.030;2024-02-23T01:18:13;5.40;99.90
22623;DHT22;11478;51.094;7.030;2024-02-23T01:20:39;5.40;99.90
22623;DHT22;11478;51.094;7.030;2024-02-23T01:23:05;5.40;99.90
22623;DHT22;11478;51.094;7.030;2024-02-23T01:25:35;5.40;99.90
22623;DHT22;11478;51.094;7.030;2024-02-23T01:28:01;5.40;99.90
22623;DHT22;11478;51.094;7.030;2024-02-23T01:30:26;5.40;99.90
22623;DHT22;11478;51.094;7.030;2024-02-23T01:32:52;5.40;99.90
22623;DHT22;11478;51.094;7.030;2024-02-23T01:35:18;5.40;99.90
22623;DHT22;11478;51.094;7.030;2024-02-23T01:37:44;5.40;99.90
22623;DHT22;11478;51.094;7.030;2024-02-23T01:40:12;5.50;99.90
22623;DHT22;11478;51.094;7.030;2024-02-23T01:42:38;5.50;99.90
22623;DHT22;11478;51.094;7.030;2024-02-23T01:45:04;5.50;99.90
22623;DHT22;11478;51.094;7.030;2024-02-23T01:47:31;5.50;99.90
22623;DHT22;11478;51.094;7.030;2024-02-23T01:49:59;5.50;99.90
22623;DHT22;11478;51.094;7.030;2024-02-23T01:52:24;5.40;99.90
22623;DHT22;11478;51.094;7.030;2024-02-23T01:55:01;5.40;99.90
22623;DHT22;11478;51.094;7.030;2024-02-23T01:57:28;5.40;99.90
22623;DHT22;11478;51.094;7.030;2024-02-23T01:59:55;5.40;99.90
22623;DHT22;11478;51.094;7.030;2024-02-23T02:02:21;5.30;99.90
22623;DHT22;11478;51.094;7.030;2024-02-23T02:04:47;5.30;99.90
22623;DHT22;11478;51.094;7.030;2024-02-23T02:07:12;5.30;99.90
22623;DHT22;11478;51.094;7.030;2024-02-23T02:09:42;5.30;99.90
22623;DHT22;11478;51.094;7.030;2024-02-23T02:12:08;5.30;99.90
22623;DHT22;11478;51.094;7.030;2024-02-23T02:14:35;5.30;99.90
22623;DHT22;11478;51.094;7.030;2024-02-23T02:17:01;5.20;99.90
22623;DHT22;11478;51.094;7.030;2024-02-23T02:19:27;5.20;99.90
22623;DHT22;11478;51.094;7.030;2024-02-23T02:21:52;5.20;99.90
22623;DHT22;11478;51.094;7.030;2024-02-23T02:24:19;5.20;99.90
22623;DHT22;11478;51.094;7.030;2024-02-23T02:26:53;5.20;99.90
22623;DHT22;11478;51.094;7.030;2024-02-23T02:29:19;5.20;99.90
22623;DHT22;11478;51.094;7.030;2024-02-23T02:31:45;5.20;99.90
22623;DHT22;11478;51.094;7.030;2024-02-23T02:34:10;5.20;99.90
22623;DHT22;11478;51.094;7.030;2024-02-23T02:36:42;5.20;99.90
22623;DHT22;11478;51.094;7.030;2024-02-23T02:39:08;5.10;99.90
22623;DHT22;11478;51.094;7.030;2024-02-23T02:41:39;5.10;99.90
22623;DHT22;11478;51.094;7.030;2024-02-23T02:44:04;5.00;99.90
22623;DHT22;11478;51.094;7.030;2024-02-23T02:46:37;5.00;99.90
22623;DHT22;11478;51.094;7.030;2024-02-23T02:49:02;4.90;99.90
22623;DHT22;11478;51.094;7.030;2024-02-23T02:51:33;4.90;99.90
22623;DHT22;11478;51.094;7.030;2024-02-23T02:53:59;4.90;99.90
22623;DHT22;11478;51.094;7.030;2024-02-23T02:56:26;4.90;99.90
22623;DHT22;11478;51.094;7.030;2024-02-23T02:58:52;4.90;99.90
22623;DHT22;11478;51.094;7.030;2024-02-23T03:01:17;4.90;99.90
22623;DHT22;11478;51.094;7.030;2024-02-23T03:03:46;4.90;99.90
22623;DHT22;11478;51.094;7.030;2024-02-23T03:06:12;4.90;99.90
22623;DHT22;11478;51.094;7.030;2024-02-23T03:08:42;4.90;99.90
22623;DHT22;11478;51.094;7.030;2024-02-23T03:11:08;4.90;99.90
22623;DHT22;11478;51.094;7.030;2024-02-23T03:13:36;4.90;99.90
22623;DHT22;11478;51.094;7.030;2024-02-23T03:16:02;4.90;99.90
22623;DHT22;11478;51.094;7.030;2024-02-23T03:18:31;4.90;99.90
22623;DHT22;11478;51.094;7.030;2024-02-23T03:20:57;4.90;99.90
22623;DHT22;11478;51.094;7.030;2024-02-23T03:23:23;4.90;99.90
22623;DHT22;11478;51.094;7.030;2024-02-23T03:25:51;4.90;99.90
22623;DHT22;11478;51.094;7.030;2024-02-23T03:28:17;4.90;99.90
22623;DHT22;11478;51.094;7.030;2024-02-23T03:30:44;4.90;99.90
22623;DHT22;11478;51.094;7.030;2024-02-23T03:33:10;4.90;99.90
22623;DHT22;11478;51.094;7.030;2024-02-23T03:35:36;4.90;99.90
22623;DHT22;11478;51.094;7.030;2024-02-23T03:38:02;4.80;99.90
22623;DHT22;11478;51.094;7.030;2024-02-23T03:40:28;4.90;99.90
22623;DHT22;11478;51.094;7.030;2024-02-23T03:42:55;4.90;99.90
22623;DHT22;11478;51.094;7.030;2024-02-23T03:45:21;4.90;99.90
22623;DHT22;11478;51.094;7.030;2024-02-23T03:47:53;4.90;99.90
22623;DHT22;11478;51.094;7.030;2024-02-23T03:50:19;4.90;99.90
22623;DHT22;11478;51.094;7.030;2024-02-23T03:52:45;4.90;99.90
22623;DHT22;11478;51.094;7.030;2024-02-23T03:55:13;4.90;99.90
22623;DHT22;11478;51.094;7.030;2024-02-23T03:57:42;4.90;99.90
22623;DHT22;11478;51.094;7.030;2024-02-23T04:00:09;4.90;99.90
22623;DHT22;11478;51.094;7.030;2024-02-23T04:02:35;4.90;99.90
22623;DHT22;11478;51.094;7.030;2024-02-23T04:05:01;4.80;99.90
22623;DHT22;11478;51.094;7.030;2024-02-23T04:07:26;4.80;99.90
22623;DHT22;11478;51.094;7.030;2024-02-23T04:09:52;4.80;99.90
22623;DHT22;11478;51.094;7.030;2024-02-23T04:12:23;4.80;99.90
22623;DHT22;11478;51.094;7.030;2024-02-23T04:14:50;4.90;99.90
22623;DHT22;11478;51.094;7.030;2024-02-23T04:17:16;4.90;99.90
22623;DHT22;11478;51.094;7.030;2024-02-23T04:19:44;4.90;99.90
22623;DHT22;11478;51.094;7.030;2024-02-23T04:22:10;5.00;99.90
22623;DHT22;11478;51.094;7.030;2024-02-23T04:24:49;5.00;99.90
22623;DHT22;11478;51.094;7.030;2024-02-23T04:27:14;5.10;99.90
22623;DHT22;11478;51.094;7.030;2024-02-23T04:29:41;5.10;99.90
22623;DHT22;11478;51.094;7.030;2024-02-23T04:32:06;5.10;99.90
22623;DHT22;11478;51.094;7.030;2024-02-23T04:34:34;5.20;99.90
22623;DHT22;11478;51.094;7.030;2024-02-23T04:37:00;5.20;99.90
22623;DHT22;11478;51.094;7.030;2024-02-23T04:39:32;5.20;99.90
22623;DHT22;11478;51.094;7.030;2024-02-23T04:41:58;5.20;99.90
22623;DHT22;11478;51.094;7.030;2024-02-23T04:44:31;5.20;99.90
22623;DHT22;11478;51.094;7.030;2024-02-23T04:46:57;5.20;99.90
22623;DHT22;11478;51.094;7.030;2024-02-23T04:49:24;5.20;99.90
22623;DHT22;11478;51.094;7.030;2024-02-23T04:51:50;5.30;99.90
22623;DHT22;11478;51.094;7.030;2024-02-23T04:54:20;5.30;99.90
22623;DHT22;11478;51.094;7.030;2024-02-23T04:56:47;5.20;99.90
22623;DHT22;11478;51.094;7.030;2024-02-23T04:59:13;5.20;99.90
22623;DHT22;11478;51.094;7.030;2024-02-23T05:01:40;5.20;99.90
22623;DHT22;11478;51.094;7.030;2024-02-23T05:04:06;5.20;99.90
22623;DHT22;11478;51.094;7.030;2024-02-23T05:06:31;5.20;99.90
22623;DHT22;11478;51.094;7.030;2024-02-23T05:08:59;5.10;99.90
22623;DHT22;11478;51.094;7.030;2024-02-23T05:11:25;5.10;99.90
22623;DHT22;11478;51.094;7.030;2024-02-23T05:13:53;5.10;99.90
22623;DHT22;11478;51.094;7.030;2024-02-23T05:16:18;5.10;99.90
22623;DHT22;11478;51.094;7.030;2024-02-23T05:18:48;5.10;99.90
22623;DHT22;11478;51.094;7.030;2024-02-23T05:21:15;5.10;99.90
22623;DHT22;11478;51.094;7.030;2024-02-23T05:23:44;5.10;99.90
22623;DHT22;11478;51.094;7.030;2024-02-23T05:26:16;5.10;99.90
22623;DHT22;11478;51.094;7.030;2024-02-23T05:28:41;5.10;99.90
22623;DHT22;11478;51.094;7.030;2024-02-23T05:31:10;5.10;99.90
22623;DHT22;11478;51.094;7.030;2024-02-23T05:33:35;5.10;99.90
22623;DHT22;11478;51.094;7.030;2024-02-23T05:36:04;5.10;99.90
22623;DHT22;11478;51.094;7.030;2024-02-23T05:38:30;5.10;99.90
22623;DHT22;11478;51.094;7.030;2024-02-23T05:40:56;5.10;99.90
22623;DHT22;11478;51.094;7.030;2024-02-23T05:43:21;5.10;99.90
22623;DHT22;11478;51.094;7.030;2024-02-23T05:45:50;5.10;99.90
22623;DHT22;11478;51.094;7.030;2024-02-23T05:48:15;5.00;99.90
22623;DHT22;11478;51.094;7.030;2024-02-23T05:50:42;5.00;99.90
22623;DHT22;11478;51.094;7.030;2024-02-23T05:53:08;5.00;99.90
22623;DHT22;11478;51.094;7.030;2024-02-23T05:55:38;5.00;99.90
22623;DHT22;11478;51.094;7.030;2024-02-23T05:58:04;4.90;99.90
22623;DHT22;11478;51.094;7.030;2024-02-23T06:00:31;4.90;99.90
22623;DHT22;11478;51.094;7.030;2024-02-23T06:02:57;4.80;99.90
22623;DHT22;11478;51.094;7.030;2024-02-23T06:05:25;4.80;99.90
22623;DHT22;11478;51.094;7.030;2024-02-23T06:07:51;4.70;99.90
22623;DHT22;11478;51.094;7.030;2024-02-23T06:10:17;4.70;99.90
22623;DHT22;11478;51.094;7.030;2024-02-23T06:12:46;4.70;99.90
22623;DHT22;11478;51.094;7.030;2024-02-23T06:15:11;4.70;99.90
22623;DHT22;11478;51.094;7.030;2024-02-23T06:17:38;4.60;99.90
22623;DHT22;11478;51.094;7.030;2024-02-23T06:20:05;4.60;99.90
22623;DHT22;11478;51.094;7.030;2024-02-23T06:22:33;4.60;99.90
22623;DHT22;11478;51.094;7.030;2024-02-23T06:24:59;4.60;99.90
22623;DHT22;11478;51.094;7.030;2024-02-23T06:27:25;4.70;99.90
22623;DHT22;11478;51.094;7.030;2024-02-23T06:29:53;4.70;99.90
22623;DHT22;11478;51.094;7.030;2024-02-23T06:32:19;4.80;99.90
22623;DHT22;11478;51.094;7.030;2024-02-23T06:34:45;4.80;99.90
22623;DHT22;11478;51.094;7.030;2024-02-23T06:37:11;4.80;99.90
22623;DHT22;11478;51.094;7.030;2024-02-23T06:39:38;4.80;99.90
22623;DHT22;11478;51.094;7.030;2024-02-23T06:42:03;4.70;99.90
22623;DHT22;11478;51.094;7.030;2024-02-23T06:44:30;4.70;99.90
22623;DHT22;11478;51.094;7.030;2024-02-23T06:46:56;4.60;99.90
22623;DHT22;11478;51.094;7.030;2024-02-23T06:49:23;4.50;99.90
22623;DHT22;11478;51.094;7.030;2024-02-23T06:51:49;4.40;99.90
22623;DHT22;11478;51.094;7.030;2024-02-23T06:54:18;4.40;99.90
22623;DHT22;11478;51.094;7.030;2024-02-23T06:56:43;4.40;99.90
22623;DHT22;11478;51.094;7.030;2024-02-23T06:59:09;4.40;99.90
22623;DHT22;11478;51.094;7.030;2024-02-23T07:01:35;4.40;99.90
22623;DHT22;11478;51.094;7.030;2024-02-23T07:04:02;4.30;99.90
22623;DHT22;11478;51.094;7.030;2024-02-23T07:06:38;4.30;99.90
22623;DHT22;11478;51.094;7.030;2024-02-23T07:09:04;4.30;99.90
22623;DHT22;11478;51.094;7.030;2024-02-23T07:11:39;4.20;99.90
22623;DHT22;11478;51.094;7.030;2024-02-23T07:14:07;4.20;99.90
22623;DHT22;11478;51.094;7.030;2024-02-23T07:16:38;4.20;99.90
22623;DHT22;11478;51.094;7.030;2024-02-23T07:19:07;4.20;99.90
22623;DHT22;11478;51.094;7.030;2024-02-23T07:21:35;4.20;99.90
22623;DHT22;11478;51.094;7.030;2024-02-23T07:24:04;4.20;99.90
22623;DHT22;11478;51.094;7.030;2024-02-23T07:26:29;4.20;99.90
22623;DHT22;11478;51.094;7.030;2024-02-23T07:29:00;4.20;99.90
22623;DHT22;11478;51.094;7.030;2024-02-23T07:31:26;4.20;99.90
22623;DHT22;11478;51.094;7.030;2024-02-23T07:33:57;4.30;99.90
22623;DHT22;11478;51.094;7.030;2024-02-23T07:36:23;4.30;99.90
22623;DHT22;11478;51.094;7.030;2024-02-23T07:38:49;4.50;99.90
22623;DHT22;11478;51.094;7.030;2024-02-23T07:41:15;4.70;99.90
22623;DHT22;11478;51.094;7.030;2024-02-23T07:43:44;4.90;99.90
22623;DHT22;11478;51.094;7.030;2024-02-23T07:46:12;5.00;99.90
22623;DHT22;11478;51.094;7.030;2024-02-23T07:48:38;5.10;99.90
22623;DHT22;11478;51.094;7.030;2024-02-23T07:51:05;5.20;99.90
22623;DHT22;11478;51.094;7.030;2024-02-23T07:53:31;5.40;99.90
22623;DHT22;11478;51.094;7.030;2024-02-23T07:55:59;5.40;99.90
22623;DHT22;11478;51.094;7.030;2024-02-23T07:58:31;5.50;99.90
22623;DHT22;11478;51.094;7.030;2024-02-23T08:00:59;5.50;99.90
22623;DHT22;11478;51.094;7.030;2024-02-23T08:03:25;5.50;99.90
22623;DHT22;11478;51.094;7.030;2024-02-23T08:05:51;5.60;99.90
22623;DHT22;11478;51.094;7.030;2024-02-23T08:08:17;5.70;99.90
22623;DHT22;11478;51.094;7.030;2024-02-23T08:10:44;5.80;99.90
22623;DHT22;11478;51.094;7.030;2024-02-23T08:13:13;5.90;99.90
22623;DHT22;11478;51.094;7.030;2024-02-23T08:15:39;5.90;99.90
22623;DHT22;11478;51.094;7.030;2024-02-23T08:18:05;5.90;99.90
22623;DHT22;11478;51.094;7.030;2024-02-23T08:20:31;5.90;99.90
22623;DHT22;11478;51.094;7.030;2024-02-23T08:22:57;5.90;99.90
22623;DHT22;11478;51.094;7.030;2024-02-23T08:25:23;5.90;99.90
22623;DHT22;11478;51.094;7.030;2024-02-23T08:27:49;6.10;99.90
22623;DHT22;11478;51.094;7.030;2024-02-23T08:30:15;6.40;99.90
22623;DHT22;11478;51.094;7.030;2024-02-23T08:32:41;6.50;99.90
22623;DHT22;11478;51.094;7.030;2024-02-23T08:35:07;6.60;99.90
22623;DHT22;11478;51.094;7.030;2024-02-23T08:37:33;6.60;99.90
22623;DHT22;11478;51.094;7.030;2024-02-23T08:39:59;6.70;99.90
22623;DHT22;11478;51.094;7.030;2024-02-23T08:42:26;6.70;99.90
22623;DHT22;11478;51.094;7.030;2024-02-23T08:44:55;6.90;99.90
22623;DHT22;11478;51.094;7.030;2024-02-23T08:47:21;7.30;99.90
22623;DHT22;11478;51.094;7.030;2024-02-23T08:49:47;7.60;99.90
22623;DHT22;11478;51.094;7.030;2024-02-23T08:52:13;8.00;99.90
22623;DHT22;11478;51.094;7.030;2024-02-23T08:54:46;8.40;99.90
22623;DHT22;11478;51.094;7.030;2024-02-23T08:57:12;8.70;99.90
22623;DHT22;11478;51.094;7.030;2024-02-23T08:59:57;8.80;99.90
22623;DHT22;11478;51.094;7.030;2024-02-23T09:02:24;8.70;99.90
22623;DHT22;11478;51.094;7.030;2024-02-23T09:04:50;8.40;99.90
22623;DHT22;11478;51.094;7.030;2024-02-23T09:07:16;8.20;99.90
22623;DHT22;11478;51.094;7.030;2024-02-23T09:09:46;8.00;99.90
22623;DHT22;11478;51.094;7.030;2024-02-23T09:12:12;7.80;99.90
22623;DHT22;11478;51.094;7.030;2024-02-23T09:14:43;7.70;99.90
22623;DHT22;11478;51.094;7.030;2024-02-23T09:17:09;7.60;99.90
22623;DHT22;11478;51.094;7.030;2024-02-23T09:19:37;7.50;99.90
22623;DHT22;11478;51.094;7.030;2024-02-23T09:22:03;7.50;99.90
22623;DHT22;11478;51.094;7.030;2024-02-23T09:24:30;7.50;99.90
22623;DHT22;11478;51.094;7.030;2024-02-23T09:26:59;7.60;99.90
22623;DHT22;11478;51.094;7.030;2024-02-23T09:29:44;7.70;99.90
22623;DHT22;11478;51.094;7.030;2024-02-23T09:32:10;7.80;99.90
22623;DHT22;11478;51.094;7.030;2024-02-23T09:34:36;8.00;99.90
22623;DHT22;11478;51.094;7.030;2024-02-23T09:37:02;8.00;99.90
22623;DHT22;11478;51.094;7.030;2024-02-23T09:39:28;8.20;99.90
22623;DHT22;11478;51.094;7.030;2024-02-23T09:41:56;8.20;99.90
22623;DHT22;11478;51.094;7.030;2024-02-23T09:44:29;8.30;99.90
22623;DHT22;11478;51.094;7.030;2024-02-23T09:46:59;8.30;99.90
22623;DHT22;11478;51.094;7.030;2024-02-23T09:49:28;8.30;99.90
22623;DHT22;11478;51.094;7.030;2024-02-23T09:51:55;8.30;99.90
22623;DHT22;11478;51.094;7.030;2024-02-23T09:54:25;8.40;99.90
22623;DHT22;11478;51.094;7.030;2024-02-23T09:56:51;8.60;99.90
22623;DHT22;11478;51.094;7.030;2024-02-23T09:59:21;8.60;99.90
22623;DHT22;11478;51.094;7.030;2024-02-23T10:01:47;8.60;99.90
22623;DHT22;11478;51.094;7.030;2024-02-23T10:04:13;8.60;99.90
22623;DHT22;11478;51.094;7.030;2024-02-23T10:06:48;8.60;99.90
22623;DHT22;11478;51.094;7.030;2024-02-23T10:09:14;8.50;99.90
22623;DHT22;11478;51.094;7.030;2024-02-23T10:11:41;8.40;99.90
22623;DHT22;11478;51.094;7.030;2024-02-23T10:14:07;8.40;99.90
22623;DHT22;11478;51.094;7.030;2024-02-23T10:16:37;8.50;99.90
22623;DHT22;11478;51.094;7.030;2024-02-23T10:19:03;8.40;99.90
22623;DHT22;11478;51.094;7.030;2024-02-23T10:21:32;8.30;99.90
22623;DHT22;11478;51.094;7.030;2024-02-23T10:23:59;8.30;99.90
22623;DHT22;11478;51.094;7.030;2024-02-23T10:26:26;8.30;99.90
22623;DHT22;11478;51.094;7.030;2024-02-23T10:28:52;8.40;99.90
22623;DHT22;11478;51.094;7.030;2024-02-23T10:31:18;8.40;99.90
22623;DHT22;11478;51.094;7.030;2024-02-23T10:33:52;8.30;99.90
22623;DHT22;11478;51.094;7.030;2024-02-23T10:36:20;8.40;99.90
22623;DHT22;11478;51.094;7.030;2024-02-23T10:38:56;8.40;99.90
22623;DHT22;11478;51.094;7.030;2024-02-23T10:41:23;8.60;99.90
22623;DHT22;11478;51.094;7.030;2024-02-23T10:43:49;8.90;99.90
22623;DHT22;11478;51.094;7.030;2024-02-23T10:46:20;9.00;99.90
22623;DHT22;11478;51.094;7.030;2024-02-23T10:48:48;9.10;99.90
22623;DHT22;11478;51.094;7.030;2024-02-23T10:51:15;9.20;99.90
22623;DHT22;11478;51.094;7.030;2024-02-23T10:53:49;9.20;99.90
22623;DHT22;11478;51.094;7.030;2024-02-23T10:56:15;9.10;99.90
22623;DHT22;11478;51.094;7.030;2024-02-23T10:58:48;9.10;99.90
22623;DHT22;11478;51.094;7.030;2024-02-23T11:01:14;9.10;99.90
22623;DHT22;11478;51.094;7.030;2024-02-23T11:03:43;9.10;99.90
22623;DHT22;11478;51.094;7.030;2024-02-23T11:06:12;9.10;99.90
22623;DHT22;11478;51.094;7.030;2024-02-23T11:08:38;9.00;99.90
22623;DHT22;11478;51.094;7.030;2024-02-23T11:11:11;9.10;99.90
22623;DHT22;11478;51.094;7.030;2024-02-23T11:13:38;9.10;99.90
22623;DHT22;11478;51.094;7.030;2024-02-23T11:16:08;9.10;99.90
22623;DHT22;11478;51.094;7.030;2024-02-23T11:18:37;9.10;99.90
22623;DHT22;11478;51.094;7.030;2024-02-23T11:21:05;9.10;99.90
22623;DHT22;11478;51.094;7.030;2024-02-23T11:23:51;9.10;99.90
22623;DHT22;11478;51.094;7.030;2024-02-23T11:26:19;9.00;99.90
22623;DHT22;11478;51.094;7.030;2024-02-23T11:28:51;9.00;99.90
22623;DHT22;11478;51.094;7.030;2024-02-23T11:31:21;8.90;99.90
22623;DHT22;11478;51.094;7.030;2024-02-23T11:33:57;8.80;99.90
22623;DHT22;11478;51.094;7.030;2024-02-23T11:36:34;8.80;99.90
22623;DHT22;11478;51.094;7.030;2024-02-23T11:39:01;8.70;99.90
22623;DHT22;11478;51.094;7.030;2024-02-23T11:41:28;8.70;99.90
22623;DHT22;11478;51.094;7.030;2024-02-23T11:43:55;8.60;99.90
22623;DHT22;11478;51.094;7.030;2024-02-23T11:46:22;8.60;99.90
22623;DHT22;11478;51.094;7.030;2024-02-23T11:48:48;8.70;99.90
22623;DHT22;11478;51.094;7.030;2024-02-23T11:51:23;8.80;99.90
22623;DHT22;11478;51.094;7.030;2024-02-23T11:53:50;8.90;99.90
22623;DHT22;11478;51.094;7.030;2024-02-23T11:56:19;9.00;99.90
22623;DHT22;11478;51.094;7.030;2024-02-23T11:58:46;9.10;99.90
22623;DHT22;11478;51.094;7.030;2024-02-23T12:01:12;9.20;99.90
22623;DHT22;11478;51.094;7.030;2024-02-23T12:03:38;9.20;99.90
22623;DHT22;11478;51.094;7.030;2024-02-23T12:06:08;9.30;99.90
22623;DHT22;11478;51.094;7.030;2024-02-23T12:08:42;9.20;99.90
22623;DHT22;11478;51.094;7.030;2024-02-23T12:11:09;9.10;99.90
22623;DHT22;11478;51.094;7.030;2024-02-23T12:13:42;9.10;99.90
22623;DHT22;11478;51.094;7.030;2024-02-23T12:18:44;9.00;99.90
22623;DHT22;11478;51.094;7.030;2024-02-23T12:21:10;8.90;99.90
22623;DHT22;11478;51.094;7.030;2024-02-23T12:23:42;8.90;99.90
22623;DHT22;11478;51.094;7.030;2024-02-23T12:26:09;8.90;99.90
22623;DHT22;11478;51.094;7.030;2024-02-23T12:28:39;8.80;99.90
22623;DHT22;11478;51.094;7.030;2024-02-23T12:31:08;8.80;99.90
22623;DHT22;11478;51.094;7.030;2024-02-23T12:33:52;8.70;99.90
22623;DHT22;11478;51.094;7.030;2024-02-23T12:36:23;8.70;99.90
22623;DHT22;11478;51.094;7.030;2024-02-23T12:38:49;8.70;99.90
22623;DHT22;11478;51.094;7.030;2024-02-23T12:41:15;8.70;99.90
22623;DHT22;11478;51.094;7.030;2024-02-23T12:43:42;8.70;99.90
22623;DHT22;11478;51.094;7.030;2024-02-23T12:46:08;8.70;99.90
22623;DHT22;11478;51.094;7.030;2024-02-23T12:48:35;8.60;99.90
22623;DHT22;11478;51.094;7.030;2024-02-23T12:51:01;8.60;99.90
22623;DHT22;11478;51.094;7.030;2024-02-23T12:53:35;8.60;99.90
22623;DHT22;11478;51.094;7.030;2024-02-23T12:56:05;8.50;99.90
22623;DHT22;11478;51.094;7.030;2024-02-23T12:58:36;8.50;99.90
22623;DHT22;11478;51.094;7.030;2024-02-23T13:01:11;8.50;99.90
22623;DHT22;11478;51.094;7.030;2024-02-23T13:03:38;8.50;99.90
22623;DHT22;11478;51.094;7.030;2024-02-23T13:06:08;8.50;99.90
22623;DHT22;11478;51.094;7.030;2024-02-23T13:08:37;8.60;99.90
22623;DHT22;11478;51.094;7.030;2024-02-23T13:11:06;8.80;99.90
22623;DHT22;11478;51.094;7.030;2024-02-23T13:13:32;8.90;99.90
22623;DHT22;11478;51.094;7.030;2024-02-23T13:15:59;9.00;99.90
22623;DHT22;11478;51.094;7.030;2024-02-23T13:18:25;9.10;99.90
22623;DHT22;11478;51.094;7.030;2024-02-23T13:20:51;9.10;99.90
22623;DHT22;11478;51.094;7.030;2024-02-23T13:23:19;9.10;99.90
22623;DHT22;11478;51.094;7.030;2024-02-23T13:25:45;9.20;99.90
22623;DHT22;11478;51.094;7.030;2024-02-23T13:28:20;9.20;99.90
22623;DHT22;11478;51.094;7.030;2024-02-23T13:30:46;9.20;99.90
22623;DHT22;11478;51.094;7.030;2024-02-23T13:33:12;9.30;99.90
22623;DHT22;11478;51.094;7.030;2024-02-23T13:35:41;9.30;99.90
22623;DHT22;11478;51.094;7.030;2024-02-23T13:38:08;9.40;99.90
22623;DHT22;11478;51.094;7.030;2024-02-23T13:40:37;9.40;99.90
22623;DHT22;11478;51.094;7.030;2024-02-23T13:43:09;9.40;99.90
22623;DHT22;11478;51.094;7.030;2024-02-23T13:45:51;9.40;99.90
22623;DHT22;11478;51.094;7.030;2024-02-23T13:48:18;9.30;99.90
22623;DHT22;11478;51.094;7.030;2024-02-23T13:50:48;9.30;99.90
22623;DHT22;11478;51.094;7.030;2024-02-23T13:53:16;9.30;99.90
22623;DHT22;11478;51.094;7.030;2024-02-23T13:55:42;9.30;99.90
22623;DHT22;11478;51.094;7.030;2024-02-23T13:58:10;9.30;99.90
22623;DHT22;11478;51.094;7.030;2024-02-23T14:00:36;9.40;99.90
22623;DHT22;11478;51.094;7.030;2024-02-23T14:03:02;9.40;99.90
22623;DHT22;11478;51.094;7.030;2024-02-23T14:05:28;9.40;99.90
22623;DHT22;11478;51.094;7.030;2024-02-23T14:07:55;9.40;99.90
22623;DHT22;11478;51.094;7.030;2024-02-23T14:10:21;9.40;99.90
22623;DHT22;11478;51.094;7.030;2024-02-23T14:12:59;9.40;99.90
22623;DHT22;11478;51.094;7.030;2024-02-23T14:15:26;9.30;99.90
22623;DHT22;11478;51.094;7.030;2024-02-23T14:17:52;9.30;99.90
22623;DHT22;11478;51.094;7.030;2024-02-23T14:20:18;9.30;99.90
22623;DHT22;11478;51.094;7.030;2024-02-23T14:22:45;9.20;99.90
22623;DHT22;11478;51.094;7.030;2024-02-23T14:25:11;9.20;99.90
22623;DHT22;11478;51.094;7.030;2024-02-23T14:27:39;9.20;99.90
22623;DHT22;11478;51.094;7.030;2024-02-23T14:30:05;9.20;99.90
22623;DHT22;11478;51.094;7.030;2024-02-23T14:32:31;9.10;99.90
22623;DHT22;11478;51.094;7.030;2024-02-23T14:34:58;9.10;99.90
22623;DHT22;11478;51.094;7.030;2024-02-23T14:37:24;9.10;99.90
22623;DHT22;11478;51.094;7.030;2024-02-23T14:39:50;9.10;99.90
22623;DHT22;11478;51.094;7.030;2024-02-23T14:42:16;9.00;99.90
22623;DHT22;11478;51.094;7.030;2024-02-23T14:44:41;9.10;99.90
22623;DHT22;11478;51.094;7.030;2024-02-23T14:47:10;9.00;99.90
22623;DHT22;11478;51.094;7.030;2024-02-23T14:49:38;9.00;99.90
22623;DHT22;11478;51.094;7.030;2024-02-23T14:52:15;8.90;99.90
22623;DHT22;11478;51.094;7.030;2024-02-23T14:54:41;8.90;99.90
22623;DHT22;11478;51.094;7.030;2024-02-23T14:57:11;8.80;99.90
22623;DHT22;11478;51.094;7.030;2024-02-23T14:59:37;8.80;99.90
22623;DHT22;11478;51.094;7.030;2024-02-23T15:02:18;8.90;99.90
22623;DHT22;11478;51.094;7.030;2024-02-23T15:04:44;8.90;99.90
22623;DHT22;11478;51.094;7.030;2024-02-23T15:07:16;8.90;99.90
22623;DHT22;11478;51.094;7.030;2024-02-23T15:09:44;8.90;99.90
22623;DHT22;11478;51.094;7.030;2024-02-23T15:12:10;8.90;99.90
22623;DHT22;11478;51.094;7.030;2024-02-23T15:14:36;8.90;99.90
22623;DHT22;11478;51.094;7.030;2024-02-23T15:17:02;8.90;99.90
22623;DHT22;11478;51.094;7.030;2024-02-23T15:19:28;8.80;99.90
22623;DHT22;11478;51.094;7.030;2024-02-23T15:21:55;8.80;99.90
22623;DHT22;11478;51.094;7.030;2024-02-23T15:24:21;8.80;99.90
22623;DHT22;11478;51.094;7.030;2024-02-23T15:26:50;8.80;99.90
22623;DHT22;11478;51.094;7.030;2024-02-23T15:29:17;8.70;99.90
22623;DHT22;11478;51.094;7.030;2024-02-23T15:31:45;8.70;99.90
22623;DHT22;11478;51.094;7.030;2024-02-23T15:34:11;8.70;99.90
22623;DHT22;11478;51.094;7.030;2024-02-23T15:36:38;8.70;99.90
22623;DHT22;11478;51.094;7.030;2024-02-23T15:39:04;8.70;99.90
22623;DHT22;11478;51.094;7.030;2024-02-23T15:41:34;8.70;99.90
22623;DHT22;11478;51.094;7.030;2024-02-23T15:44:01;8.70;99.90
22623;DHT22;11478;51.094;7.030;2024-02-23T15:46:31;8.80;99.90
22623;DHT22;11478;51.094;7.030;2024-02-23T15:48:57;8.90;99.90
22623;DHT22;11478;51.094;7.030;2024-02-23T15:51:26;9.00;99.90